Time;durP1;ratioP1;P1;durP2;ratioP2;P2;SDS_P1;SDS_P2;PMS_P1;PMS_P2;Temp;Humidity;BMP_temperature;BMP_pressure;BME280_temperature;BME280_humidity;BME280_pressure;Samples;Min_cycle;Max_cycle;Signal;HPM_P1;HPM_P2
2022/06/04 00:00:19;;;;;;;;;;;;;;;-142.75;100.00;77294.75;5052830;28;19917;-69
2022/06/04 00:02:45;;;;;;;;;;;;;;;-142.75;100.00;77306.56;5047745;28;20410;-69
2022/06/04 00:05:11;;;;;;;;;;;;;;;-142.75;100.00;77304.59;5050298;28;20059;-68
2022/06/04 00:07:37;;;;;;;;;;;;;;;-142.75;100.00;77308.53;5036976;28;20451;-69
2022/06/04 00:15:34;;;;;;;;;;;;;;;-142.75;100.00;77328.22;5046039;28;19924;-68
2022/06/04 00:18:00;;;;;;;;;;;;;;;-142.75;100.00;77322.31;5035922;28;19917;-69
2022/06/04 00:20:25;;;;;;;;;;;;;;;-142.75;100.00;77340.03;5040703;28;20334;-69
2022/06/04 00:22:56;;;;;;;;;;;;;;;-142.75;100.00;77342.00;5042724;28;19921;-69
2022/06/04 00:25:21;;;;;;;;;;;;;;;-142.75;100.00;77338.06;5057261;23;19933;-69
2022/06/04 00:27:46;;;;;;;;;;;;;;;-142.75;100.00;77338.06;5030306;28;19990;-68
2022/06/04 00:30:11;;;;;;;;;;;;;;;-142.75;100.00;77342.00;5031168;28;19917;-69
2022/06/04 00:32:37;;;;;;;;;;;;;;;-142.75;100.00;77347.91;5032095;28;19925;-70
2022/06/04 00:35:06;;;;;;;;;;;;;;;-142.75;100.00;77340.03;5032213;28;19917;-69
2022/06/04 00:37:35;;;;;;;;;;;;;;;-142.75;100.00;77343.97;5032076;28;19925;-70
2022/06/04 00:40:00;;;;;;;;;;;;;;;-142.75;100.00;77359.72;5031703;28;19917;-69
2022/06/04 00:42:26;;;;;;;;;;;;;;;-142.75;100.00;77373.50;5021284;28;19940;-70
2022/06/04 00:45:09;;;;;;;;;;;;;;;-142.75;100.00;77371.53;5012871;28;19928;-69
2022/06/04 00:47:36;;;;;;;;;;;;;;;-142.75;100.00;77365.63;5012157;28;19922;-68
2022/06/04 00:50:01;;;;;;;;;;;;;;;-142.75;100.00;77373.50;5011915;28;20039;-69
2022/06/04 00:52:26;;;;;;;;;;;;;;;-142.75;100.00;77373.50;5012116;28;20371;-69
2022/06/04 00:54:53;;;;;;;;;;;;;;;-142.75;100.00;77375.47;5011944;28;19922;-69
2022/06/04 00:57:21;;;;;;;;;;;;;;;-142.75;100.00;77385.31;5009408;28;20024;-70
2022/06/04 01:00:03;;;;;;;;;;;;;;;-142.75;100.00;77391.22;5010441;28;20016;-69
2022/06/04 01:02:31;;;;;;;;;;;;;;;-142.75;100.00;77385.31;5012196;28;19921;-70
2022/06/04 01:05:14;;;;;;;;;;;;;;;-142.75;100.00;77389.25;4994006;28;19918;-69
2022/06/04 01:07:55;;;;;;;;;;;;;;;-142.75;100.00;77403.03;5016539;28;19924;-69
2022/06/04 01:10:26;;;;;;;;;;;;;;;-142.75;100.00;77420.75;5017498;28;19917;-68
2022/06/04 01:12:54;;;;;;;;;;;;;;;-142.75;100.00;77428.63;5011754;28;19925;-68
2022/06/04 01:15:27;;;;;;;;;;;;;;;-142.75;100.00;77432.56;5011517;28;19917;-68
2022/06/04 01:17:53;;;;;;;;;;;;;;;-142.75;100.00;77444.38;5011661;28;19924;-69
2022/06/04 01:20:33;;;;;;;;;;;;;;;-142.75;100.00;77440.44;5011644;28;19917;-70
2022/06/04 01:23:13;;;;;;;;;;;;;;;-142.75;100.00;77436.50;5011614;28;19969;-70
2022/06/04 01:25:47;;;;;;;;;;;;;;;-142.75;100.00;77462.13;5011592;28;20383;-70
2022/06/04 01:28:16;;;;;;;;;;;;;;;-142.75;100.00;77464.09;5011388;28;19960;-70
2022/06/04 01:30:54;;;;;;;;;;;;;;;-142.75;100.00;77470.00;5026119;28;19924;-70
2022/06/04 01:33:21;;;;;;;;;;;;;;;-142.75;100.00;77462.13;5030857;28;20001;-70
2022/06/04 01:35:59;;;;;;;;;;;;;;;-142.75;100.00;77460.13;5013548;28;19925;-70
2022/06/04 01:38:27;;;;;;;;;;;;;;;-142.75;100.00;77473.94;5030935;28;19917;-70
2022/06/04 01:41:03;;;;;;;;;;;;;;;-142.75;100.00;77485.75;5030930;28;20371;-70
2022/06/04 01:43:30;;;;;;;;;;;;;;;-142.75;100.00;77489.69;5031197;28;20378;-70
2022/06/04 01:45:59;;;;;;;;;;;;;;;-142.75;100.00;77495.59;5031314;28;19921;-69
2022/06/04 01:48:26;;;;;;;;;;;;;;;-142.75;100.00;77491.66;5030676;28;19917;-69
2022/06/04 01:50:54;;;;;;;;;;;;;;;-142.75;100.00;77491.66;5030851;28;19931;-70
2022/06/04 01:53:22;;;;;;;;;;;;;;;-142.75;100.00;77491.66;5031014;28;19962;-69
2022/06/04 01:55:54;;;;;;;;;;;;;;;-142.75;100.00;77495.59;5030584;28;19944;-70
2022/06/04 01:58:21;;;;;;;;;;;;;;;-142.75;100.00;77501.50;5030511;28;19918;-69
2022/06/04 02:01:07;;;;;;;;;;;;;;;-142.75;100.00;77511.34;5012808;28;20318;-69
2022/06/04 02:03:35;;;;;;;;;;;;;;;-142.75;100.00;77511.34;5030753;28;20015;-70
2022/06/04 02:06:05;;;;;;;;;;;;;;;-142.75;100.00;77507.41;5030546;28;19924;-70
2022/06/04 02:08:36;;;;;;;;;;;;;;;-142.75;100.00;77501.50;5030591;28;19917;-69
2022/06/04 02:11:13;;;;;;;;;;;;;;;-142.75;100.00;77513.31;5012747;28;20004;-70
2022/06/04 02:13:39;;;;;;;;;;;;;;;-142.75;100.00;77515.28;5030924;28;19917;-70
2022/06/04 02:16:08;;;;;;;;;;;;;;;-142.75;100.00;77517.25;5030900;28;20329;-70
2022/06/04 02:18:34;;;;;;;;;;;;;;;-142.75;100.00;77519.22;5018199;28;20000;-70
2022/06/04 02:21:00;;;;;;;;;;;;;;;-142.75;100.00;77513.31;5020925;28;19963;-70
2022/06/04 02:23:29;;;;;;;;;;;;;;;-142.75;100.00;77523.16;5012210;28;20403;-70
2022/06/04 02:25:55;;;;;;;;;;;;;;;-142.75;100.00;77529.06;5033713;28;19924;-69
2022/06/04 02:28:20;;;;;;;;;;;;;;;-142.75;100.00;77534.97;5036935;28;19917;-69
2022/06/04 02:30:48;;;;;;;;;;;;;;;-142.75;100.00;77538.91;5037164;28;19967;-69
2022/06/04 02:33:33;;;;;;;;;;;;;;;-142.75;100.00;77527.09;5036981;28;19917;-70
2022/06/04 02:36:17;;;;;;;;;;;;;;;-142.75;100.00;77536.94;5036048;28;20314;-70
2022/06/04 02:38:53;;;;;;;;;;;;;;;-142.75;100.00;77542.84;5018986;28;19917;-69
2022/06/04 02:41:21;;;;;;;;;;;;;;;-142.75;100.00;77538.91;5032877;28;19921;-70
2022/06/04 02:43:57;;;;;;;;;;;;;;;-142.75;100.00;77540.88;5037312;28;20414;-69
2022/06/04 02:46:29;;;;;;;;;;;;;;;-142.75;100.00;77554.66;5036795;28;19979;-69
2022/06/04 02:49:20;;;;;;;;;;;;;;;-142.75;100.00;77542.84;5036551;28;20420;-69
2022/06/04 02:51:48;;;;;;;;;;;;;;;-142.75;100.00;77546.78;5033834;28;20306;-69
2022/06/04 02:54:18;;;;;;;;;;;;;;;-142.75;100.00;77533.00;5033973;28;19926;-70
2022/06/04 02:56:45;;;;;;;;;;;;;;;-142.75;100.00;77527.09;5030698;28;19917;-69
2022/06/04 02:59:13;;;;;;;;;;;;;;;-142.75;100.00;77523.16;5018539;28;19920;-69
2022/06/04 03:01:43;;;;;;;;;;;;;;;-142.75;100.00;77511.34;5019049;28;20306;-69
2022/06/04 03:04:08;;;;;;;;;;;;;;;-142.75;100.00;77511.34;5036545;28;19943;-69
2022/06/04 03:06:34;;;;;;;;;;;;;;;-142.75;100.00;77507.41;5026954;28;20457;-70
2022/06/04 03:09:00;;;;;;;;;;;;;;;-142.75;100.00;77501.50;4999054;28;20379;-70
2022/06/04 03:11:26;;;;;;;;;;;;;;;-142.75;100.00;77509.38;5016981;28;19921;-70
2022/06/04 03:13:51;;;;;;;;;;;;;;;-142.75;100.00;77523.16;5017251;28;19996;-70
2022/06/04 03:16:17;;;;;;;;;;;;;;;-142.75;100.00;77519.22;5017241;28;19917;-70
2022/06/04 03:18:43;;;;;;;;;;;;;;;-142.75;100.00;77529.06;4999095;28;19926;-69
2022/06/04 03:21:08;;;;;;;;;;;;;;;-142.75;100.00;77521.19;5016845;28;22338;-70
2022/06/04 03:23:34;;;;;;;;;;;;;;;-142.75;100.00;77529.06;5017021;28;20004;-70
2022/06/04 03:25:59;;;;;;;;;;;;;;;-142.75;100.00;77536.94;5016412;28;19917;-70
2022/06/04 03:28:24;;;;;;;;;;;;;;;-142.75;100.00;77538.91;5016531;28;19917;-69
2022/06/04 03:30:50;;;;;;;;;;;;;;;-142.75;100.00;77536.94;5016716;28;19917;-70
2022/06/04 03:33:15;;;;;;;;;;;;;;;-142.75;100.00;77531.03;5016802;28;19917;-70
2022/06/04 03:35:41;;;;;;;;;;;;;;;-142.75;100.00;77540.88;5016536;28;20349;-70
2022/06/04 03:38:06;;;;;;;;;;;;;;;-142.75;100.00;77540.88;5013344;28;20349;-69
2022/06/04 03:40:32;;;;;;;;;;;;;;;-142.75;100.00;77534.97;5013444;28;19921;-69
2022/06/04 03:42:57;;;;;;;;;;;;;;;-142.75;100.00;77538.91;5013539;28;19928;-70
2022/06/04 03:45:24;;;;;;;;;;;;;;;-142.75;100.00;77540.88;5014132;28;19921;-70
2022/06/04 03:47:50;;;;;;;;;;;;;;;-142.75;100.00;77533.00;5013294;28;19989;-69
2022/06/04 03:50:16;;;;;;;;;;;;;;;-142.75;100.00;77540.88;5013400;28;19918;-69
2022/06/04 03:52:42;;;;;;;;;;;;;;;-142.75;100.00;77536.94;5013262;28;20007;-69
2022/06/04 03:55:08;;;;;;;;;;;;;;;-142.75;100.00;77550.72;4995637;28;20418;-69
2022/06/04 03:57:38;;;;;;;;;;;;;;;-142.75;100.00;77552.69;5013427;28;19956;-69
2022/06/04 04:00:06;;;;;;;;;;;;;;;-142.75;100.00;77546.78;5013152;28;20000;-69
2022/06/04 04:02:31;;;;;;;;;;;;;;;-142.75;100.00;77538.91;5013021;28;19922;-70
2022/06/04 04:04:57;;;;;;;;;;;;;;;-142.75;100.00;77534.97;5013100;28;20430;-69
2022/06/04 04:07:22;;;;;;;;;;;;;;;-142.75;100.00;77538.91;5028249;28;20360;-69
2022/06/04 04:09:47;;;;;;;;;;;;;;;-142.75;100.00;77538.91;5032238;28;19924;-69
2022/06/04 04:12:12;;;;;;;;;;;;;;;-142.75;100.00;77542.84;5032801;28;19917;-69
2022/06/04 04:14:38;;;;;;;;;;;;;;;-142.75;100.00;77546.78;5033445;28;19970;-70
2022/06/04 04:17:03;;;;;;;;;;;;;;;-142.75;100.00;77552.69;5032441;28;19917;-69
2022/06/04 04:19:31;;;;;;;;;;;;;;;-142.75;100.00;77542.84;5032356;28;19917;-69
2022/06/04 04:21:57;;;;;;;;;;;;;;;-142.75;100.00;77546.78;5032374;28;19921;-69
2022/06/04 04:24:22;;;;;;;;;;;;;;;-142.75;100.00;77556.63;5032585;28;19917;-69
2022/06/04 04:26:47;;;;;;;;;;;;;;;-142.75;100.00;77546.78;5014667;28;19917;-70
2022/06/04 04:29:12;;;;;;;;;;;;;;;-142.75;100.00;77529.06;5031872;28;20322;-70
2022/06/04 04:31:38;;;;;;;;;;;;;;;-142.75;100.00;77534.97;5032259;28;19923;-69
2022/06/04 04:34:03;;;;;;;;;;;;;;;-142.75;100.00;77534.97;5032449;28;19960;-69
2022/06/04 04:36:30;;;;;;;;;;;;;;;-142.75;100.00;77546.78;5032125;28;19917;-70
2022/06/04 04:38:58;;;;;;;;;;;;;;;-142.75;100.00;77534.97;5032053;28;20003;-69
2022/06/04 04:41:23;;;;;;;;;;;;;;;-142.75;100.00;77534.97;5032010;28;19921;-69
2022/06/04 04:43:49;;;;;;;;;;;;;;;-142.75;100.00;77538.91;5032276;28;20007;-70
2022/06/04 04:46:15;;;;;;;;;;;;;;;-142.75;100.00;77554.66;5022803;28;20048;-70
2022/06/04 04:48:41;;;;;;;;;;;;;;;-142.75;100.00;77556.63;5011879;28;19918;-69
2022/06/04 04:51:10;;;;;;;;;;;;;;;-142.75;100.00;77562.53;5013576;28;20423;-69
2022/06/04 04:53:35;;;;;;;;;;;;;;;-142.75;100.00;77558.59;5031868;28;19921;-69
2022/06/04 04:56:00;;;;;;;;;;;;;;;-142.75;100.00;77564.50;5031870;28;19917;-70
2022/06/04 04:58:25;;;;;;;;;;;;;;;-142.75;100.00;77562.53;5031351;28;20301;-69
2022/06/04 05:00:51;;;;;;;;;;;;;;;-142.75;100.00;77550.72;5031934;28;19917;-70
2022/06/04 05:03:16;;;;;;;;;;;;;;;-142.75;100.00;77548.75;5031566;28;19972;-69
2022/06/04 05:05:41;;;;;;;;;;;;;;;-142.75;100.00;77550.72;5019036;28;19924;-69
2022/06/04 05:08:06;;;;;;;;;;;;;;;-142.75;100.00;77542.84;5011676;28;19924;-69
2022/06/04 05:10:31;;;;;;;;;;;;;;;-142.75;100.00;77552.69;5012081;28;19917;-69
2022/06/04 05:12:57;;;;;;;;;;;;;;;-142.75;100.00;77564.50;5011627;28;19924;-69
2022/06/04 05:15:22;;;;;;;;;;;;;;;-142.75;100.00;77554.66;5012372;28;19917;-69
2022/06/04 05:17:48;;;;;;;;;;;;;;;-142.75;100.00;77550.72;5011752;28;20273;-69
2022/06/04 05:20:13;;;;;;;;;;;;;;;-142.75;100.00;77548.75;5024121;28;19921;-69
2022/06/04 05:22:39;;;;;;;;;;;;;;;-142.75;100.00;77538.91;5019681;28;19921;-69
2022/06/04 05:25:04;;;;;;;;;;;;;;;-142.75;100.00;77540.88;5011707;28;20033;-70
2022/06/04 05:27:29;;;;;;;;;;;;;;;-142.75;100.00;77544.81;5011317;28;20359;-69
2022/06/04 05:29:55;;;;;;;;;;;;;;;-142.75;100.00;77536.94;5011503;28;19973;-69
2022/06/04 05:32:20;;;;;;;;;;;;;;;-142.75;100.00;77527.09;5026287;28;19943;-69
2022/06/04 05:34:45;;;;;;;;;;;;;;;-142.75;100.00;77499.53;5031073;28;20302;-69
2022/06/04 05:37:10;;;;;;;;;;;;;;;-142.75;100.00;77487.72;5030966;28;19917;-69
2022/06/04 05:39:36;;;;;;;;;;;;;;;-142.75;100.00;77466.03;5030865;28;19917;-69
2022/06/04 05:42:02;;;;;;;;;;;;;;;-142.75;100.00;77448.34;5018308;28;19929;-69
2022/06/04 05:44:27;;;;;;;;;;;;;;;-142.75;100.00;77446.34;5023546;28;19921;-69
2022/06/04 05:46:53;;;;;;;;;;;;;;;-142.75;100.00;77405.00;5031241;28;19939;-69
2022/06/04 05:49:19;;;;;;;;;;;;;;;-142.75;100.00;77365.63;5030638;28;20156;-69
2022/06/04 05:51:44;;;;;;;;;;;;;;;-142.75;100.00;77349.88;5031050;28;19917;-69
2022/06/04 05:54:10;;;;;;;;;;;;;;;-142.75;100.00;77330.19;5013060;28;19929;-69
2022/06/04 05:56:37;;;;;;;;;;;;;;;-142.75;100.00;77320.34;5030809;28;19917;-69
2022/06/04 05:59:04;;;;;;;;;;;;;;;-142.75;100.00;77326.25;5030478;28;20005;-69
2022/06/04 06:01:31;;;;;;;;;;;;;;;-142.75;100.00;77345.94;5030147;28;19921;-69
2022/06/04 06:03:56;;;;;;;;;;;;;;;-142.75;100.00;77369.56;5030672;28;20011;-69
2022/06/04 06:06:23;;;;;;;;;;;;;;;-142.75;100.00;77401.06;5030670;28;20000;-69
2022/06/04 06:08:48;;;;;;;;;;;;;;;-142.75;100.00;77424.69;5031010;28;20388;-69
2022/06/04 06:11:15;;;;;;;;;;;;;;;-142.75;100.00;77438.47;5031229;28;20011;-69
2022/06/04 06:13:41;;;;;;;;;;;;;;;-142.75;100.00;77444.38;5031364;28;19917;-69
2022/06/04 06:16:08;;;;;;;;;;;;;;;-142.75;100.00;77440.44;5031101;28;20389;-69
2022/06/04 06:18:34;;;;;;;;;;;;;;;-142.75;100.00;77454.25;5030933;28;20298;-69
2022/06/04 06:21:00;;;;;;;;;;;;;;;-142.75;100.00;77442.41;5030973;28;19917;-69
2022/06/04 06:23:25;;;;;;;;;;;;;;;-142.75;100.00;77444.38;5031155;28;19924;-69
2022/06/04 06:25:50;;;;;;;;;;;;;;;-142.75;100.00;77452.25;5046077;23;19952;-70
2022/06/04 06:28:15;;;;;;;;;;;;;;;-142.75;100.00;77442.41;5028151;28;19921;-68
2022/06/04 06:30:41;;;;;;;;;;;;;;;-142.75;100.00;77440.44;5030315;28;19917;-69
2022/06/04 06:33:06;;;;;;;;;;;;;;;-142.75;100.00;77442.41;5031120;28;20007;-70
2022/06/04 06:35:31;;;;;;;;;;;;;;;-142.75;100.00;77450.28;5030966;28;19917;-69
2022/06/04 06:37:56;;;;;;;;;;;;;;;-142.75;100.00;77444.38;5012956;28;19927;-70
2022/06/04 06:40:22;;;;;;;;;;;;;;;-142.75;100.00;77436.50;5031056;28;19917;-69
2022/06/04 06:42:48;;;;;;;;;;;;;;;-142.75;100.00;77436.50;5030912;28;19928;-69
2022/06/04 06:45:13;;;;;;;;;;;;;;;-142.75;100.00;77422.72;5030952;28;20353;-70
2022/06/04 06:47:40;;;;;;;;;;;;;;;-142.75;100.00;77403.03;5030823;28;20338;-69
2022/06/04 06:50:06;;;;;;;;;;;;;;;-142.75;100.00;77405.00;5030675;28;19917;-69
2022/06/04 06:52:31;;;;;;;;;;;;;;;-142.75;100.00;77405.00;5013116;28;20295;-69
2022/06/04 06:54:56;;;;;;;;;;;;;;;-142.75;100.00;77408.94;5030822;28;19948;-69
2022/06/04 06:57:21;;;;;;;;;;;;;;;-142.75;100.00;77410.91;5030717;28;19936;-69
2022/06/04 06:59:47;;;;;;;;;;;;;;;-142.75;100.00;77414.84;5030461;28;19917;-69
2022/06/04 07:02:12;;;;;;;;;;;;;;;-142.75;100.00;77430.59;5030840;28;19921;-70
2022/06/04 07:04:37;;;;;;;;;;;;;;;-142.75;100.00;77408.94;5012916;28;19924;-69
2022/06/04 07:07:03;;;;;;;;;;;;;;;-142.75;100.00;77405.00;5030643;28;19928;-69
2022/06/04 07:09:28;;;;;;;;;;;;;;;-142.75;100.00;77408.94;5030333;28;19943;-71
2022/06/04 07:11:54;;;;;;;;;;;;;;;-142.75;100.00;77393.19;5030779;28;20497;-68
2022/06/04 07:14:20;;;;;;;;;;;;;;;-142.75;100.00;77393.19;5034506;28;19925;-70
2022/06/04 07:16:45;;;;;;;;;;;;;;;-142.75;100.00;77405.00;5034474;28;20011;-70
2022/06/04 07:19:12;;;;;;;;;;;;;;;-142.75;100.00;77399.09;5034224;28;19967;-68
2022/06/04 07:21:37;;;;;;;;;;;;;;;-142.75;100.00;77377.44;5034277;28;20371;-68
2022/06/04 07:24:02;;;;;;;;;;;;;;;-142.75;100.00;77365.63;5034355;28;20003;-68
2022/06/04 07:26:28;;;;;;;;;;;;;;;-142.75;100.00;77371.53;5033884;28;19917;-69
2022/06/04 07:28:53;;;;;;;;;;;;;;;-142.75;100.00;77361.69;5016246;28;19917;-68
2022/06/04 07:31:18;;;;;;;;;;;;;;;-142.75;100.00;77349.88;5034145;28;19917;-68
2022/06/04 07:33:45;;;;;;;;;;;;;;;-142.75;100.00;77349.88;5034192;28;19917;-68
2022/06/04 07:36:27;;;;;;;;;;;;;;;-142.75;100.00;77334.13;5016088;28;19917;-68
2022/06/04 07:38:52;;;;;;;;;;;;;;;-142.75;100.00;77326.25;5033656;28;20008;-68
2022/06/04 07:41:22;;;;;;;;;;;;;;;-142.75;100.00;77318.38;5033948;28;19965;-68
2022/06/04 07:43:47;;;;;;;;;;;;;;;-142.75;100.00;77300.66;5033885;28;19943;-68
2022/06/04 07:46:13;;;;;;;;;;;;;;;-142.75;100.00;77290.81;5033794;28;19924;-68
2022/06/04 07:48:38;;;;;;;;;;;;;;;-142.75;100.00;77282.94;5033532;28;20011;-68
2022/06/04 07:51:04;;;;;;;;;;;;;;;-142.75;100.00;77271.13;5016030;28;19917;-68
2022/06/04 07:53:30;;;;;;;;;;;;;;;-142.75;100.00;77259.31;5033725;28;19920;-68
2022/06/04 07:55:55;;;;;;;;;;;;;;;-142.75;100.00;77231.75;5033588;28;20301;-68
2022/06/04 07:58:20;;;;;;;;;;;;;;;-142.75;100.00;77210.09;5033270;28;19917;-68
2022/06/04 08:00:46;;;;;;;;;;;;;;;-142.75;100.00;77194.34;5033688;28;19917;-69
2022/06/04 08:03:11;;;;;;;;;;;;;;;-142.75;100.00;77194.34;5033378;28;19944;-68
2022/06/04 08:05:36;;;;;;;;;;;;;;;-142.75;100.00;77182.53;5031431;28;20007;-68
2022/06/04 08:08:01;;;;;;;;;;;;;;;-142.75;100.00;77184.50;5013505;28;19921;-68
2022/06/04 08:10:26;;;;;;;;;;;;;;;-142.75;100.00;77188.44;5013601;28;20376;-67
2022/06/04 08:12:54;;;;;;;;;;;;;;;-142.75;100.00;77210.09;5013632;28;19922;-68
2022/06/04 08:15:19;;;;;;;;;;;;;;;-142.75;100.00;77202.22;5013510;28;19924;-67
2022/06/04 08:17:46;;;;;;;;;;;;;;;-142.75;100.00;77200.25;5013307;28;19917;-68
2022/06/04 08:20:12;;;;;;;;;;;;;;;-142.75;100.00;77194.34;5013327;28;19989;-69
2022/06/04 08:22:37;;;;;;;;;;;;;;;-142.75;100.00;77192.38;5013322;28;19925;-68
2022/06/04 08:25:02;;;;;;;;;;;;;;;-142.75;100.00;77188.44;4995237;28;20016;-69
2022/06/04 08:27:27;;;;;;;;;;;;;;;-142.75;100.00;77190.41;5015023;28;19918;-68
2022/06/04 08:29:53;;;;;;;;;;;;;;;-142.75;100.00;77196.31;5015845;28;19967;-68
2022/06/04 08:32:18;;;;;;;;;;;;;;;-142.75;100.00;77204.19;5000848;28;19923;-68
2022/06/04 08:34:44;;;;;;;;;;;;;;;-142.75;100.00;77200.25;5018794;28;20017;-68
2022/06/04 08:37:09;;;;;;;;;;;;;;;-142.75;100.00;77198.28;5017731;28;20404;-68
2022/06/04 08:39:34;;;;;;;;;;;;;;;-142.75;100.00;77194.34;5021094;28;19917;-69
2022/06/04 08:42:00;;;;;;;;;;;;;;;-142.75;100.00;77196.31;5032723;28;20012;-68
2022/06/04 08:44:39;;;;;;;;;;;;;;;-142.75;100.00;77184.50;5027750;28;19917;-68
2022/06/04 08:47:07;;;;;;;;;;;;;;;-142.75;100.00;77180.56;5012791;28;19918;-67
2022/06/04 08:49:39;;;;;;;;;;;;;;;-142.75;100.00;77166.78;5012508;28;20394;-68
2022/06/04 08:52:24;;;;;;;;;;;;;;;-142.75;100.00;77164.81;5012736;28;20013;-69
2022/06/04 08:57:54;;;;;;;;;;;;;;;-142.75;100.00;77137.25;5012108;28;19941;-68
2022/06/04 09:00:24;;;;;;;;;;;;;;;-142.75;100.00;77145.13;5011846;28;20008;-68
2022/06/04 09:03:03;;;;;;;;;;;;;;;-142.75;100.00;77131.34;5011646;28;19921;-68
2022/06/04 09:05:32;;;;;;;;;;;;;;;-142.75;100.00;77133.31;5011602;28;20383;-70
2022/06/04 09:08:00;;;;;;;;;;;;;;;-142.75;100.00;77121.50;5011522;28;19924;-69
2022/06/04 09:10:31;;;;;;;;;;;;;;;-142.75;100.00;77131.34;5011469;28;19921;-67
2022/06/04 09:13:09;;;;;;;;;;;;;;;-142.75;100.00;77119.53;5030165;28;19924;-68
2022/06/04 09:15:41;;;;;;;;;;;;;;;-142.75;100.00;77121.50;5013482;28;20294;-68
2022/06/04 09:18:12;;;;;;;;;;;;;;;-142.75;100.00;77117.56;5030817;28;20293;-68
2022/06/04 09:20:39;;;;;;;;;;;;;;;-142.75;100.00;77111.66;5031125;28;19986;-68
2022/06/04 09:23:23;;;;;;;;;;;;;;;-142.75;100.00;77101.81;5031008;28;20374;-69
2022/06/04 09:26:05;;;;;;;;;;;;;;;-142.75;100.00;77097.88;5012972;28;19917;-69
2022/06/04 09:28:50;;;;;;;;;;;;;;;-142.75;100.00;77084.09;5012791;28;19917;-70
2022/06/04 09:31:23;;;;;;;;;;;;;;;-142.75;100.00;77062.44;5030482;28;20365;-68
2022/06/04 09:33:52;;;;;;;;;;;;;;;-142.75;100.00;77050.63;5013275;28;19920;-67
2022/06/04 09:36:19;;;;;;;;;;;;;;;-142.75;100.00;77046.69;5012316;28;19975;-69
2022/06/04 09:38:52;;;;;;;;;;;;;;;-142.75;100.00;77058.50;5030676;28;19921;-68
2022/06/04 09:41:21;;;;;;;;;;;;;;;-142.75;100.00;77046.69;5013306;28;20302;-68
2022/06/04 09:43:58;;;;;;;;;;;;;;;-142.75;100.00;77062.44;5030763;28;19924;-67
2022/06/04 09:46:24;;;;;;;;;;;;;;;-142.75;100.00;77060.47;5030737;28;19932;-67
2022/06/04 09:48:50;;;;;;;;;;;;;;;-142.75;100.00;77042.75;5030388;28;19917;-68
2022/06/04 09:51:18;;;;;;;;;;;;;;;-142.75;100.00;77076.22;5030695;28;19921;-69
2022/06/04 09:53:46;;;;;;;;;;;;;;;-142.75;100.00;77058.50;5030678;28;19975;-67
2022/06/04 09:56:16;;;;;;;;;;;;;;;-142.75;100.00;77066.38;5030212;28;19963;-67
2022/06/04 09:58:43;;;;;;;;;;;;;;;-142.75;100.00;77050.63;5012903;28;20295;-69
2022/06/04 10:01:19;;;;;;;;;;;;;;;-142.75;100.00;77040.78;5030372;28;20016;-66
2022/06/04 10:03:56;;;;;;;;;;;;;;;-142.75;100.00;77025.03;5030395;28;20386;-67
2022/06/04 10:06:23;;;;;;;;;;;;;;;-142.75;100.00;77023.06;5030407;28;19974;-67
2022/06/04 10:11:34;;;;;;;;;;;;;;;-142.75;100.00;77025.03;5030603;28;20290;-67
2022/06/04 10:14:00;;;;;;;;;;;;;;;-142.75;100.00;77015.19;5030507;28;19917;-67
2022/06/04 10:16:35;;;;;;;;;;;;;;;-142.75;100.00;77003.38;5030210;28;19917;-67
2022/06/04 10:19:12;;;;;;;;;;;;;;;-142.75;100.00;76997.47;5029970;28;19921;-67
2022/06/04 10:21:41;;;;;;;;;;;;;;;-142.75;100.00;76989.59;5030384;28;19962;-67
2022/06/04 10:24:18;;;;;;;;;;;;;;;-142.75;100.00;76979.75;5030334;28;20369;-67
2022/06/04 10:26:51;;;;;;;;;;;;;;;-142.75;100.00;76960.06;5029988;28;19921;-67
2022/06/04 10:29:33;;;;;;;;;;;;;;;-142.75;100.00;76920.69;5030025;28;19917;-66
2022/06/04 10:32:17;;;;;;;;;;;;;;;-142.75;100.00;76910.84;5030024;28;19917;-66
2022/06/04 10:34:51;;;;;;;;;;;;;;;-142.75;100.00;76901.00;5030244;28;19921;-66
2022/06/04 10:37:28;;;;;;;;;;;;;;;-142.75;100.00;76887.22;5029962;28;20018;-66
2022/06/04 10:39:54;;;;;;;;;;;;;;;-142.75;100.00;76887.22;5029688;28;19952;-67
2022/06/04 10:42:26;;;;;;;;;;;;;;;-142.75;100.00;76885.25;5030023;28;20003;-67
2022/06/04 10:45:00;;;;;;;;;;;;;;;-142.75;100.00;76881.31;5029906;28;19955;-67
2022/06/04 10:47:30;;;;;;;;;;;;;;;-142.75;100.00;76887.22;5021049;28;19963;-67
2022/06/04 10:50:01;;;;;;;;;;;;;;;-142.75;100.00;76861.63;5013915;28;19921;-67
2022/06/04 10:52:29;;;;;;;;;;;;;;;-142.75;100.00;76867.53;4996423;28;19964;-67
2022/06/04 10:55:13;;;;;;;;;;;;;;;-142.75;100.00;76818.31;5014064;28;19917;-66
2022/06/04 10:57:45;;;;;;;;;;;;;;;-142.75;100.00;76816.34;5013918;28;20438;-67
2022/06/04 11:00:14;;;;;;;;;;;;;;;-142.75;100.00;76806.50;5013874;28;19925;-66
2022/06/04 11:02:39;;;;;;;;;;;;;;;-142.75;100.00;76800.63;4996258;28;20295;-67
2022/06/04 11:05:14;;;;;;;;;;;;;;;-142.75;100.00;76786.84;5013872;28;19918;-67
2022/06/04 11:07:52;;;;;;;;;;;;;;;-142.75;100.00;76788.81;5013913;28;19924;-67
2022/06/04 11:10:19;;;;;;;;;;;;;;;-142.75;100.00;76792.75;5013763;28;20011;-67
2022/06/04 11:12:48;;;;;;;;;;;;;;;-142.75;100.00;76786.84;4996159;28;19921;-67
2022/06/04 11:15:22;;;;;;;;;;;;;;;-142.75;100.00;76782.91;4996142;28;19957;-67
2022/06/04 11:17:48;;;;;;;;;;;;;;;-142.75;100.00;76782.91;5013529;28;19928;-67
2022/06/04 11:20:17;;;;;;;;;;;;;;;-142.75;100.00;76775.03;5013584;28;19921;-67
2022/06/04 11:22:48;;;;;;;;;;;;;;;-142.75;100.00;76778.97;5013751;28;20442;-68
2022/06/04 11:25:27;;;;;;;;;;;;;;;-142.75;100.00;76777.00;5013378;28;19944;-67
2022/06/04 11:27:54;;;;;;;;;;;;;;;-142.75;100.00;76749.44;5013356;28;20000;-67
2022/06/04 11:30:25;;;;;;;;;;;;;;;-142.75;100.00;76714.00;5013575;28;20379;-67
2022/06/04 11:33:01;;;;;;;;;;;;;;;-142.75;100.00;76654.94;5013611;28;19965;-67
2022/06/04 11:35:33;;;;;;;;;;;;;;;-142.75;100.00;76582.09;5033108;28;19917;-67
2022/06/04 11:38:14;;;;;;;;;;;;;;;-142.75;100.00;76532.88;5033083;28;19943;-66
2022/06/04 11:40:45;;;;;;;;;;;;;;;-142.75;100.00;76538.78;5015275;28;19917;-69
2022/06/04 11:43:29;;;;;;;;;;;;;;;-142.75;100.00;76558.47;5033014;28;19968;-68
2022/06/04 11:46:02;;;;;;;;;;;;;;;-142.75;100.00;76570.28;5033040;28;20019;-69
2022/06/04 11:48:49;;;;;;;;;;;;;;;-142.75;100.00;76578.16;5015000;28;19917;-68
2022/06/04 11:51:23;;;;;;;;;;;;;;;-142.75;100.00;76584.06;5033148;28;19921;-68
2022/06/04 11:53:53;;;;;;;;;;;;;;;-142.75;100.00;76595.88;5032535;28;19943;-67
2022/06/04 11:56:36;;;;;;;;;;;;;;;-142.75;100.00;76599.81;5032617;28;20022;-68
2022/06/04 11:59:20;;;;;;;;;;;;;;;-142.75;100.00;76605.72;5031584;28;19917;-67
2022/06/04 12:01:59;;;;;;;;;;;;;;;-142.75;100.00;76609.66;5032548;28;19921;-68
2022/06/04 12:04:29;;;;;;;;;;;;;;;-142.75;100.00;76601.78;5001223;28;19925;-68
2022/06/04 12:06:57;;;;;;;;;;;;;;;-142.75;100.00;76584.06;5028382;28;19917;-67
2022/06/04 12:09:29;;;;;;;;;;;;;;;-142.75;100.00;76525.03;4994901;28;19917;-67
2022/06/04 12:12:02;;;;;;;;;;;;;;;-142.75;100.00;76471.88;5013069;28;19929;-67
2022/06/04 12:14:48;;;;;;;;;;;;;;;-142.75;100.00;76408.88;5012979;28;19960;-67
2022/06/04 12:17:18;;;;;;;;;;;;;;;-142.75;100.00;76381.31;5029105;28;19928;-69
2022/06/04 12:25:40;;;;;;;;;;;;;;;-142.75;100.00;76330.16;5010944;28;19924;-69
2022/06/04 12:28:18;;;;;;;;;;;;;;;-142.75;100.00;76334.09;4993263;28;19936;-68
2022/06/04 12:30:46;;;;;;;;;;;;;;;-142.75;100.00;76312.44;5010970;28;20008;-68
2022/06/04 12:33:32;;;;;;;;;;;;;;;-142.75;100.00;76280.94;5010746;28;19917;-69
2022/06/04 12:36:06;;;;;;;;;;;;;;;-142.75;100.00;76292.75;5010817;28;20363;-72
2022/06/04 12:38:44;;;;;;;;;;;;;;;-142.75;100.00;76304.56;4991659;28;19917;-68
2022/06/04 12:41:12;;;;;;;;;;;;;;;-142.75;100.00;76288.81;5010683;28;19968;-68
2022/06/04 12:43:38;;;;;;;;;;;;;;;-142.75;100.00;76259.28;5010922;28;19968;-67